New Stuyahok Airport

About
Name: New Stuyahok Airport
Identifier:  KNW/PANW
Serves:  New Stuyahok, Alaska
Owner:  Alaska DOT&PF - Central Region
Public/Private:  Public
Local Time:  25. Aug 01:14 AKDT
Description: New Stuyahok Airport is a state-owned, public-use airport located one nautical mile west of the central business district of New Stuyahok, a city in the Dillingham Census Area of the U.S. state of Alaska. Scheduled airline service to Dillingham Airport is provided by Peninsula Airways.
Source: Wikipedia
Location
New Stuyahok
  United States

Runways
Identifier Length (m/ft) Surface
14/32 3,281/3,281 Gravel
Flights per Day
2 flights
Distance: 80km (50mi)
Punctuality
41% (1 flights per day delayed)
Delay Average: 103 minutes
Current Weather
 13 C (Humidity: 71%)
  6kt (11km/h / 6mph) from 270°
  Overcast at 8,500 feet (2,590 meter)
  16km (10 mi.)
 METAR PANW 250856Z AUTO 27006KT 10SM OVC085 13/08 A2988 RMK AO2 SLP132 T01280083 402000078 53012

Current Flights

Departures
Number Departure To Airline
Arrivals
Number Arrival From Airline
 GV423 18:25 +410  Dillingham Grant Aviation
 GV4221 12:25 +314  Dillingham Grant Aviation

Current Delays

Departures
N/A
Arrivals
N/A

Destinations

Top Destinations
Airport Flights
per week
Seats
per week
  Anchorage (ANC) 0 - 0 0

Airlines & Planes

Top Airlines
Airline Flights
per Day
Seats
per Day
SkyBus International Airlines 0 -
Top Plane Types
Model Flights Seats
Pilatus PC-12 0.0/day - 0